createdAt,value
2023-04-24T00:00:18.664Z,61.00
2023-04-24T00:02:20.632Z,60.80
2023-04-24T00:04:22.497Z,60.70
2023-04-24T00:06:24.628Z,60.80
2023-04-24T00:08:26.255Z,60.90
2023-04-24T00:10:27.868Z,60.70
2023-04-24T00:12:29.520Z,61.10
2023-04-24T00:14:31.630Z,60.80
2023-04-24T00:16:33.285Z,60.50
2023-04-24T00:18:34.987Z,60.50
2023-04-24T00:20:36.720Z,60.60
2023-04-24T00:22:38.348Z,60.80
2023-04-24T00:24:40.390Z,60.70
2023-04-24T00:26:42.075Z,60.80
2023-04-24T00:28:43.821Z,60.80
2023-04-24T00:30:45.590Z,60.70
2023-04-24T00:32:47.425Z,60.50
2023-04-24T00:34:49.633Z,60.70
2023-04-24T00:36:53.112Z,60.50
2023-04-24T00:38:55.274Z,60.70
2023-04-24T00:40:56.997Z,60.40
2023-04-24T00:42:58.641Z,60.40
2023-04-24T00:45:01.594Z,60.60
2023-04-24T00:47:03.668Z,60.30
2023-04-24T00:49:05.808Z,60.60
2023-04-24T00:51:07.803Z,60.60
2023-04-24T00:53:09.502Z,60.30
2023-04-24T00:55:11.422Z,60.50
2023-04-24T00:57:13.952Z,60.20
2023-04-24T00:59:17.182Z,60.60
2023-04-24T01:01:22.647Z,60.70
2023-04-24T01:03:27.323Z,60.50
2023-04-24T01:05:29.253Z,60.30
2023-04-24T01:07:31.191Z,60.30
2023-04-24T01:09:32.819Z,60.50
2023-04-24T01:11:34.445Z,60.60
2023-04-24T01:13:36.059Z,60.70
2023-04-24T01:15:38.556Z,60.70
2023-04-24T01:17:40.637Z,60.70
2023-04-24T01:19:42.534Z,60.70
2023-04-24T01:21:44.840Z,60.90
2023-04-24T01:23:46.747Z,60.80
2023-04-24T01:25:49.072Z,60.90
2023-04-24T01:27:51.132Z,60.90
2023-04-24T01:29:52.994Z,60.90
2023-04-24T01:31:56.051Z,60.90
2023-04-24T01:33:57.939Z,60.90
2023-04-24T01:35:59.799Z,60.80
2023-04-24T01:38:01.462Z,60.80
2023-04-24T01:40:04.634Z,61.00
2023-04-24T01:42:06.893Z,60.70
2023-04-24T01:44:08.621Z,60.70
2023-04-24T01:46:10.613Z,60.50
2023-04-24T01:48:13.248Z,60.70
2023-04-24T01:50:14.904Z,60.70
2023-04-24T01:52:17.340Z,60.70
2023-04-24T01:54:19.025Z,60.70
2023-04-24T01:56:23.869Z,60.70
2023-04-24T01:58:25.746Z,60.70
2023-04-24T02:00:27.430Z,60.80
2023-04-24T02:02:29.836Z,61.00
2023-04-24T02:04:32.338Z,60.80
2023-04-24T02:06:34.079Z,61.10
2023-04-24T02:08:36.175Z,60.80
2023-04-24T02:10:37.792Z,60.80
2023-04-24T02:12:40.117Z,60.80
2023-04-24T02:14:43.254Z,61.20
2023-04-24T02:16:45.678Z,61.00
2023-04-24T02:18:47.524Z,60.70
2023-04-24T02:20:49.199Z,60.80
2023-04-24T02:22:50.905Z,60.70
2023-04-24T02:24:53.500Z,60.80
2023-04-24T02:26:55.708Z,60.80
2023-04-24T02:28:57.376Z,60.90
2023-04-24T02:30:59.519Z,60.80
2023-04-24T02:33:01.296Z,60.90
2023-04-24T02:35:02.950Z,60.50
2023-04-24T02:37:04.787Z,60.80
2023-04-24T02:39:06.527Z,60.80
2023-04-24T02:41:08.214Z,60.90
2023-04-24T02:43:10.336Z,61.00
2023-04-24T02:45:12.716Z,61.20
2023-04-24T02:47:14.772Z,60.90
2023-04-24T02:49:16.378Z,61.00
2023-04-24T02:51:18.116Z,61.00
2023-04-24T02:53:19.821Z,60.90
2023-04-24T02:55:21.512Z,60.80
2023-04-24T02:57:23.116Z,60.80
2023-04-24T02:59:24.907Z,61.10
2023-04-24T03:01:26.860Z,61.00
2023-04-24T03:03:28.701Z,60.90
2023-04-24T03:05:31.719Z,60.90
2023-04-24T03:07:33.397Z,60.90
2023-04-24T03:09:35.035Z,61.00
2023-04-24T03:11:36.687Z,61.00
2023-04-24T03:13:38.329Z,60.90
2023-04-24T03:15:40.001Z,60.70
2023-04-24T03:17:41.694Z,61.10
2023-04-24T03:19:43.534Z,61.20
2023-04-24T03:21:46.588Z,62.00
2023-04-24T03:23:48.391Z,61.50
2023-04-24T03:25:50.224Z,61.20
2023-04-24T03:27:55.679Z,61.50
2023-04-24T03:30:29.704Z,61.70
2023-04-24T03:32:34.888Z,61.30
2023-04-24T03:34:37.370Z,61.50
2023-04-24T03:36:39.211Z,61.60
2023-04-24T03:38:42.717Z,61.70
2023-04-24T03:40:59.244Z,61.70
2023-04-24T03:43:12.952Z,61.50
2023-04-24T03:45:14.612Z,61.50
2023-04-24T03:47:20.702Z,61.50
2023-04-24T03:49:23.408Z,61.60
2023-04-24T03:51:26.242Z,62.50
2023-04-24T03:53:31.377Z,61.90
2023-04-24T03:55:33.950Z,61.90
2023-04-24T03:57:35.722Z,62.00
2023-04-24T03:59:45.958Z,62.10
2023-04-24T04:01:52.447Z,62.10
2023-04-24T04:03:54.436Z,62.30
2023-04-24T04:05:59.255Z,62.50
2023-04-24T04:08:01.652Z,62.50
2023-04-24T04:10:03.593Z,62.50
2023-04-24T04:12:05.345Z,62.50
2023-04-24T04:14:09.493Z,62.60
2023-04-24T04:16:14.571Z,62.70
2023-04-24T04:18:16.663Z,62.70
2023-04-24T04:20:18.750Z,62.80
2023-04-24T04:22:20.406Z,62.80
2023-04-24T04:24:25.239Z,62.70
2023-04-24T04:26:28.230Z,62.50
2023-04-24T04:28:50.999Z,62.50
2023-04-24T04:30:54.719Z,62.50
2023-04-24T04:32:57.630Z,62.50
2023-04-24T04:34:59.738Z,62.40
2023-04-24T04:37:03.262Z,62.50
2023-04-24T04:39:23.120Z,62.60
2023-04-24T04:41:36.779Z,62.70
2023-04-24T04:43:40.612Z,62.70
2023-04-24T04:45:44.298Z,62.70
2023-04-24T04:48:09.942Z,62.60
2023-04-24T04:50:12.186Z,62.60
2023-04-24T04:52:13.948Z,62.70
2023-04-24T04:54:16.727Z,62.70
2023-04-24T04:56:18.472Z,62.80
2023-04-24T04:58:21.437Z,62.50
2023-04-24T05:00:28.116Z,62.60
2023-04-24T05:02:30.032Z,62.60
2023-04-24T05:04:32.412Z,62.60
2023-04-24T05:06:34.489Z,62.20
2023-04-24T05:08:36.221Z,62.50
2023-04-24T05:10:39.906Z,62.40
2023-04-24T05:12:42.757Z,62.10
2023-04-24T05:14:46.742Z,61.80
2023-04-24T05:16:48.554Z,61.70
2023-04-24T05:18:51.824Z,61.80
2023-04-24T05:20:58.155Z,61.60
2023-04-24T05:23:00.279Z,61.70
2023-04-24T05:25:03.773Z,61.60
2023-04-24T05:27:31.913Z,61.80
2023-04-24T05:29:34.227Z,61.90
2023-04-24T05:31:36.045Z,62.30
2023-04-24T05:33:38.564Z,62.30
2023-04-24T05:35:41.421Z,62.40
2023-04-24T05:37:43.204Z,62.80
2023-04-24T05:39:49.498Z,62.80
2023-04-24T05:41:51.160Z,63.00
2023-04-24T05:43:52.839Z,62.90
2023-04-24T05:45:54.773Z,63.10
2023-04-24T05:47:56.619Z,63.40
2023-04-24T05:49:58.244Z,63.00
2023-04-24T05:52:00.017Z,62.90
2023-04-24T05:54:02.653Z,62.90
2023-04-24T05:56:04.389Z,62.60
2023-04-24T05:58:07.096Z,62.40
2023-04-24T06:00:13.033Z,62.40
2023-04-24T06:02:24.595Z,62.20
2023-04-24T06:04:27.256Z,62.00
2023-04-24T06:06:29.840Z,62.50
2023-04-24T06:08:31.673Z,62.70
2023-04-24T06:10:33.345Z,62.90
2023-04-24T06:12:35.126Z,63.00
2023-04-24T06:14:41.941Z,62.90
2023-04-24T06:16:52.192Z,62.80
2023-04-24T06:19:06.378Z,62.80
2023-04-24T06:21:08.141Z,62.70
2023-04-24T06:23:09.832Z,62.60
2023-04-24T06:25:11.744Z,62.80
2023-04-24T06:27:14.586Z,62.90
2023-04-24T06:29:17.453Z,62.70
2023-04-24T06:31:19.082Z,63.10
2023-04-24T06:33:23.014Z,62.80
2023-04-24T06:35:25.683Z,62.90
2023-04-24T06:37:27.378Z,62.80
2023-04-24T06:39:29.107Z,63.20
2023-04-24T06:41:30.746Z,62.60
2023-04-24T06:43:32.633Z,62.40
2023-04-24T06:45:34.658Z,62.40
2023-04-24T06:47:36.490Z,62.50
2023-04-24T06:49:38.277Z,62.00
2023-04-24T06:51:39.876Z,62.20
2023-04-24T06:53:41.587Z,62.50
2023-04-24T06:55:44.268Z,63.30
2023-04-24T06:57:45.980Z,62.00
2023-04-24T06:59:47.637Z,62.30
2023-04-24T07:01:49.332Z,62.50
2023-04-24T07:03:51.420Z,62.50
2023-04-24T07:05:54.318Z,62.70
2023-04-24T07:07:56.126Z,62.80
2023-04-24T07:09:58.589Z,63.00
2023-04-24T07:12:00.526Z,62.80
2023-04-24T07:14:02.184Z,63.00
2023-04-24T07:16:04.151Z,63.10
2023-04-24T07:18:06.188Z,63.20
2023-04-24T07:20:10.265Z,63.50
2023-04-24T07:22:17.601Z,63.20
2023-04-24T07:24:22.064Z,63.10
2023-04-24T07:26:24.420Z,63.10
2023-04-24T07:28:26.706Z,63.10
2023-04-24T07:30:30.080Z,62.80
2023-04-24T07:32:31.812Z,62.70
2023-04-24T07:34:33.529Z,62.50
2023-04-24T07:36:35.441Z,62.50
2023-04-24T07:38:37.136Z,62.70
2023-04-24T07:40:38.760Z,62.50
2023-04-24T07:42:40.561Z,62.30
2023-04-24T07:44:42.286Z,62.40
2023-04-24T07:46:44.327Z,62.30
2023-04-24T07:48:47.906Z,62.10
2023-04-24T07:50:50.795Z,62.10
2023-04-24T07:52:52.456Z,62.00
2023-04-24T07:54:59.231Z,62.20
2023-04-24T07:57:01.769Z,62.20
2023-04-24T07:59:03.456Z,62.20
2023-04-24T08:01:05.285Z,62.00
2023-04-24T08:03:07.141Z,62.20
2023-04-24T08:05:09.298Z,61.90
2023-04-24T08:07:11.359Z,62.30
2023-04-24T08:09:13.157Z,62.80
2023-04-24T08:11:14.874Z,62.60
2023-04-24T08:13:16.567Z,62.60
2023-04-24T08:15:18.640Z,62.40
2023-04-24T08:17:20.371Z,62.30
2023-04-24T08:19:22.299Z,62.40
2023-04-24T08:21:24.244Z,62.50
2023-04-24T08:23:25.951Z,62.60
2023-04-24T08:25:27.687Z,62.40
2023-04-24T08:27:29.475Z,62.50
2023-04-24T08:29:31.557Z,62.40
2023-04-24T08:31:33.479Z,62.60
2023-04-24T08:33:35.994Z,62.50
2023-04-24T08:35:37.845Z,62.80
2023-04-24T08:37:39.745Z,62.80
2023-04-24T08:39:41.643Z,62.40
2023-04-24T08:41:46.887Z,62.20
2023-04-24T08:43:48.702Z,62.20
2023-04-24T08:45:50.943Z,62.40
2023-04-24T08:47:55.947Z,62.30
2023-04-24T08:49:58.399Z,62.40
2023-04-24T08:52:00.960Z,62.30
2023-04-24T08:54:03.720Z,62.10
2023-04-24T08:56:05.624Z,62.30
2023-04-24T08:58:07.649Z,62.70
2023-04-24T09:00:11.766Z,62.60
2023-04-24T09:02:14.554Z,62.40
2023-04-24T09:04:17.440Z,62.40
2023-04-24T09:06:20.299Z,62.40
2023-04-24T09:08:23.367Z,61.90
2023-04-24T09:10:25.927Z,61.90
2023-04-24T09:12:27.685Z,61.80
2023-04-24T09:14:29.640Z,61.80
2023-04-24T09:16:35.932Z,61.80
2023-04-24T09:18:38.524Z,62.50
2023-04-24T09:20:59.219Z,61.70
2023-04-24T09:23:01.019Z,61.50
2023-04-24T09:25:04.330Z,61.50
2023-04-24T09:27:06.101Z,61.60
2023-04-24T09:29:07.901Z,61.40
2023-04-24T09:31:11.299Z,61.40
2023-04-24T09:33:16.713Z,61.40
2023-04-24T09:35:18.483Z,61.20
2023-04-24T09:37:30.331Z,61.10
2023-04-24T09:39:32.037Z,61.10
2023-04-24T09:41:34.020Z,61.20
2023-04-24T09:43:36.713Z,61.00
2023-04-24T09:45:39.378Z,60.90
2023-04-24T09:47:41.898Z,60.80
2023-04-24T09:49:45.044Z,60.50
2023-04-24T09:51:47.137Z,60.50
2023-04-24T09:53:48.959Z,60.50
2023-04-24T09:56:02.765Z,60.40
2023-04-24T09:58:06.366Z,60.40
2023-04-24T10:00:08.548Z,60.50
2023-04-24T10:02:20.271Z,60.40
2023-04-24T10:04:23.874Z,60.30
2023-04-24T10:06:31.981Z,60.30
2023-04-24T10:08:37.504Z,60.50
2023-04-24T10:10:41.161Z,60.50
2023-04-24T10:12:43.902Z,60.40
2023-04-24T10:14:48.536Z,60.30
2023-04-24T10:16:51.153Z,60.50
2023-04-24T10:18:53.053Z,60.30
2023-04-24T10:20:55.993Z,60.20
2023-04-24T10:22:58.705Z,60.20
2023-04-24T10:25:00.813Z,60.40
2023-04-24T10:27:03.217Z,60.40
2023-04-24T10:29:05.978Z,60.50
2023-04-24T10:31:07.757Z,60.40
2023-04-24T10:33:09.761Z,60.50
2023-04-24T10:35:13.518Z,60.30
2023-04-24T10:37:15.555Z,60.30
2023-04-24T10:39:17.579Z,60.30
2023-04-24T10:41:24.262Z,60.30
2023-04-24T10:43:25.925Z,60.40
2023-04-24T10:45:27.588Z,60.40
2023-04-24T10:47:29.371Z,60.30
2023-04-24T10:49:32.155Z,60.50
2023-04-24T10:51:47.247Z,60.50
2023-04-24T10:53:50.304Z,60.50
2023-04-24T10:55:52.763Z,60.50
2023-04-24T10:58:06.424Z,60.50
2023-04-24T11:00:26.285Z,60.60
2023-04-24T11:02:37.204Z,60.70
2023-04-24T11:04:39.079Z,61.00
2023-04-24T11:06:41.352Z,61.00
2023-04-24T11:08:46.481Z,60.80
2023-04-24T11:10:55.004Z,60.80
2023-04-24T11:12:56.697Z,60.80
2023-04-24T11:14:59.181Z,60.70
2023-04-24T11:17:02.021Z,60.70
2023-04-24T11:19:12.144Z,60.60
2023-04-24T11:21:14.222Z,60.80
2023-04-24T11:23:16.078Z,60.70
2023-04-24T11:25:17.951Z,60.60
2023-04-24T11:27:20.851Z,60.60
2023-04-24T11:29:23.314Z,60.50
2023-04-24T11:31:38.712Z,60.50
2023-04-24T11:33:40.683Z,60.40
2023-04-24T11:35:42.629Z,60.30
2023-04-24T11:39:56.930Z,60.20
2023-04-24T11:42:03.351Z,60.20
2023-04-24T11:44:10.383Z,60.10
2023-04-24T11:46:12.440Z,60.20
2023-04-24T11:48:22.184Z,60.30
2023-04-24T11:50:26.793Z,60.30
2023-04-24T11:52:28.683Z,60.20
2023-04-24T11:54:30.546Z,60.20
2023-04-24T11:56:32.276Z,60.30
2023-04-24T11:58:37.883Z,60.40
2023-04-24T12:00:39.689Z,60.20
2023-04-24T12:02:41.685Z,60.20
2023-04-24T12:04:43.762Z,60.10
2023-04-24T12:07:02.216Z,60.10
2023-04-24T12:09:08.201Z,60.00
2023-04-24T12:11:19.829Z,60.00
2023-04-24T12:13:22.232Z,60.10
2023-04-24T12:15:27.003Z,60.10
2023-04-24T12:17:31.191Z,60.00
2023-04-24T12:19:32.935Z,60.00
2023-04-24T12:21:34.683Z,60.00
2023-04-24T12:23:36.800Z,59.80
2023-04-24T12:25:39.539Z,59.70
2023-04-24T12:27:41.299Z,59.70
2023-04-24T12:29:53.103Z,59.90
2023-04-24T12:31:55.284Z,59.90
2023-04-24T12:33:57.062Z,59.70
2023-04-24T12:35:58.788Z,59.70
2023-04-24T12:38:10.866Z,59.70
2023-04-24T12:40:13.693Z,59.70
2023-04-24T12:42:15.364Z,59.80
2023-04-24T12:44:16.974Z,59.80
2023-04-24T12:46:19.964Z,60.10
2023-04-24T12:48:23.896Z,60.20
2023-04-24T12:50:25.745Z,60.40
2023-04-24T12:52:28.174Z,60.70
2023-04-24T12:54:33.345Z,60.50
2023-04-24T12:56:35.162Z,60.40
2023-04-24T12:58:36.907Z,60.00
2023-04-24T13:00:39.493Z,60.00
2023-04-24T13:02:41.430Z,59.70
2023-04-24T13:04:43.239Z,59.60
2023-04-24T13:06:44.976Z,59.70
2023-04-24T13:08:48.190Z,59.60
2023-04-24T13:10:50.206Z,59.30
2023-04-24T13:12:51.941Z,59.80
2023-04-24T13:14:54.120Z,59.10
2023-04-24T13:16:55.921Z,59.30
2023-04-24T13:18:57.659Z,59.10
2023-04-24T13:20:59.436Z,59.00
2023-04-24T13:23:01.202Z,59.00
2023-04-24T13:25:03.018Z,58.90
2023-04-24T13:27:04.933Z,58.70
2023-04-24T13:29:06.615Z,58.80
2023-04-24T13:31:08.434Z,58.90
2023-04-24T13:33:10.277Z,58.80
2023-04-24T13:35:12.000Z,58.40
2023-04-24T13:37:13.966Z,58.50
2023-04-24T13:39:16.851Z,58.80
2023-04-24T13:41:18.579Z,58.90
2023-04-24T13:43:20.278Z,58.90
2023-04-24T13:45:25.296Z,58.70
2023-04-24T13:47:27.522Z,58.80
2023-04-24T13:49:29.374Z,58.80
2023-04-24T13:51:31.146Z,58.70
2023-04-24T13:53:33.806Z,58.40
2023-04-24T13:55:35.525Z,58.10
2023-04-24T13:57:37.842Z,58.30
2023-04-24T13:59:39.513Z,58.30
2023-04-24T14:01:41.384Z,58.20
2023-04-24T14:03:44.759Z,58.50
2023-04-24T14:05:46.759Z,58.60
2023-04-24T14:07:48.512Z,58.30
2023-04-24T14:09:50.798Z,58.30
2023-04-24T14:11:52.654Z,58.00
2023-04-24T14:13:55.408Z,57.90
2023-04-24T14:15:57.276Z,57.90
2023-04-24T14:17:59.035Z,58.90
2023-04-24T14:20:01.542Z,58.00
2023-04-24T14:22:03.342Z,58.00
2023-04-24T14:24:05.119Z,58.00
2023-04-24T14:26:06.927Z,58.10
2023-04-24T14:28:08.571Z,58.00
2023-04-24T14:30:10.328Z,58.00
2023-04-24T14:32:12.101Z,58.00
2023-04-24T14:34:14.346Z,58.10
2023-04-24T14:36:16.161Z,58.10
2023-04-24T14:38:17.906Z,58.20
2023-04-24T14:40:39.592Z,58.10
2023-04-24T14:42:41.614Z,58.10
2023-04-24T14:44:43.352Z,58.20
2023-04-24T14:46:45.171Z,58.10
2023-04-24T14:48:46.892Z,58.20
2023-04-24T14:50:48.612Z,58.30
2023-04-24T14:52:50.565Z,58.20
2023-04-24T14:54:52.378Z,58.30
2023-04-24T14:56:55.293Z,58.70
2023-04-24T14:58:57.107Z,59.10
2023-04-24T15:00:58.881Z,59.30
2023-04-24T15:03:01.935Z,59.20
2023-04-24T15:05:05.196Z,59.10
2023-04-24T15:07:07.162Z,59.10
2023-04-24T15:09:09.188Z,59.20
2023-04-24T15:11:10.950Z,59.50
2023-04-24T15:13:12.763Z,59.20
2023-04-24T15:15:14.489Z,59.30
2023-04-24T15:17:16.170Z,59.40
2023-04-24T15:19:17.852Z,59.70
2023-04-24T15:21:19.566Z,59.70
2023-04-24T15:23:21.448Z,60.60
2023-04-24T15:25:23.152Z,59.90
2023-04-24T15:27:25.397Z,59.70
2023-04-24T15:29:28.211Z,59.70
2023-04-24T15:31:30.000Z,60.00
2023-04-24T15:33:31.733Z,60.10
2023-04-24T15:35:34.677Z,60.40
2023-04-24T15:37:36.656Z,60.40
2023-04-24T15:39:38.350Z,60.40
2023-04-24T15:41:39.987Z,60.50
2023-04-24T15:43:42.188Z,60.60
2023-04-24T15:45:44.429Z,60.60
2023-04-24T15:47:47.658Z,60.70
2023-04-24T15:49:49.439Z,60.60
2023-04-24T15:51:51.184Z,60.70
2023-04-24T15:53:56.104Z,60.80
2023-04-24T15:55:58.213Z,61.00
2023-04-24T15:58:00.486Z,61.10
2023-04-24T16:00:02.924Z,61.20
2023-04-24T16:02:18.936Z,61.60
2023-04-24T16:04:22.246Z,61.60
2023-04-24T16:06:27.762Z,61.90
2023-04-24T16:08:29.503Z,62.00
2023-04-24T16:10:31.278Z,61.40
2023-04-24T16:12:33.054Z,61.40
2023-04-24T16:14:34.749Z,61.10
2023-04-24T16:16:36.528Z,61.40
2023-04-24T16:18:38.259Z,62.00
2023-04-24T16:20:40.009Z,62.10
2023-04-24T16:22:42.028Z,62.20
2023-04-24T16:24:55.118Z,61.80
2023-04-24T16:27:08.989Z,61.50
2023-04-24T16:29:10.761Z,61.50
2023-04-24T16:31:12.538Z,61.30
2023-04-24T16:33:14.693Z,61.00
2023-04-24T16:35:16.457Z,60.80
2023-04-24T16:37:19.206Z,61.60
2023-04-24T16:39:21.513Z,60.70
2023-04-24T16:41:23.293Z,60.60
2023-04-24T16:43:25.188Z,60.40
2023-04-24T16:45:26.874Z,60.40
2023-04-24T16:47:28.730Z,60.20
2023-04-24T16:49:37.673Z,60.10
2023-04-24T16:51:42.451Z,60.20
2023-04-24T16:53:44.207Z,60.20
2023-04-24T16:55:50.969Z,60.20
2023-04-24T16:57:53.322Z,60.30
2023-04-24T16:59:55.580Z,60.20
2023-04-24T17:01:57.612Z,60.30
2023-04-24T17:03:59.642Z,60.30
2023-04-24T17:06:03.570Z,60.50
2023-04-24T17:08:06.116Z,60.30
2023-04-24T17:10:09.227Z,59.90
2023-04-24T17:12:11.168Z,59.80
2023-04-24T17:14:13.078Z,59.80
2023-04-24T17:16:15.121Z,60.10
2023-04-24T17:18:18.199Z,60.10
2023-04-24T17:20:23.216Z,60.20
2023-04-24T17:22:26.231Z,60.20
2023-04-24T17:24:28.103Z,60.30
2023-04-24T17:26:32.364Z,60.40
2023-04-24T17:28:34.176Z,60.60
2023-04-24T17:30:36.093Z,60.40
2023-04-24T17:32:37.840Z,60.50
2023-04-24T17:34:39.764Z,60.40
2023-04-24T17:36:41.603Z,60.50
2023-04-24T17:38:43.571Z,60.50
2023-04-24T17:40:48.159Z,60.40
2023-04-24T17:42:49.979Z,60.50
2023-04-24T17:44:51.720Z,60.40
2023-04-24T17:46:53.453Z,60.40
2023-04-24T17:48:55.548Z,60.40
2023-04-24T17:50:57.485Z,60.40
2023-04-24T17:52:59.229Z,60.40
2023-04-24T17:55:01.253Z,60.20
2023-04-24T17:57:03.371Z,60.10
2023-04-24T17:59:05.051Z,60.00
2023-04-24T18:01:06.948Z,60.00
2023-04-24T18:03:09.270Z,60.00
2023-04-24T18:05:11.196Z,60.10
2023-04-24T18:07:13.224Z,60.10
2023-04-24T18:09:17.912Z,60.10
2023-04-24T18:11:19.910Z,60.10
2023-04-24T18:13:21.755Z,60.10
2023-04-24T18:15:26.687Z,60.00
2023-04-24T18:17:30.324Z,60.20
2023-04-24T18:19:32.200Z,60.20
2023-04-24T18:21:33.956Z,60.20
2023-04-24T18:23:35.984Z,60.20
2023-04-24T18:25:37.845Z,60.20
2023-04-24T18:27:59.631Z,60.40
2023-04-24T18:30:11.356Z,60.30
2023-04-24T18:34:48.165Z,60.80
2023-04-24T18:36:53.198Z,61.00
2023-04-24T18:39:05.983Z,61.00
2023-04-24T18:41:14.785Z,61.20
2023-04-24T18:43:21.398Z,61.30
2023-04-24T18:45:31.433Z,61.40
2023-04-24T18:47:38.680Z,62.40
2023-04-24T18:49:43.087Z,61.50
2023-04-24T18:51:53.958Z,61.50
2023-04-24T18:54:00.774Z,61.60
2023-04-24T18:56:11.235Z,62.00
2023-04-24T18:58:15.456Z,62.10
2023-04-24T19:00:21.331Z,62.20
2023-04-24T19:02:23.289Z,62.00
2023-04-24T19:04:25.433Z,61.90
2023-04-24T19:06:29.408Z,62.10
2023-04-24T19:08:31.303Z,62.30
2023-04-24T19:10:34.448Z,62.20
2023-04-24T19:12:36.411Z,62.10
2023-04-24T19:14:38.292Z,62.10
2023-04-24T19:16:40.616Z,62.40
2023-04-24T19:18:55.109Z,62.40
2023-04-24T19:21:09.766Z,62.20
2023-04-24T19:23:13.790Z,62.30
2023-04-24T19:27:49.521Z,62.00
2023-04-24T19:29:54.485Z,62.20
2023-04-24T19:32:01.141Z,62.10
2023-04-24T19:34:03.113Z,62.20
2023-04-24T19:36:11.076Z,62.10
2023-04-24T19:38:16.024Z,62.00
2023-04-24T19:40:18.092Z,62.10
2023-04-24T19:42:31.699Z,62.00
2023-04-24T19:44:38.029Z,61.80
2023-04-24T19:46:40.256Z,61.80
2023-04-24T19:48:42.150Z,61.70
2023-04-24T19:50:44.517Z,61.70
2023-04-24T19:52:46.489Z,61.50
2023-04-24T19:54:48.330Z,61.40
2023-04-24T19:56:50.070Z,61.50
2023-04-24T19:58:51.834Z,61.30
2023-04-24T20:00:53.586Z,61.20
2023-04-24T20:02:55.877Z,61.10
2023-04-24T20:04:57.919Z,61.20
2023-04-24T20:06:59.712Z,61.30
2023-04-24T20:09:01.538Z,61.50
2023-04-24T20:11:03.305Z,61.50
2023-04-24T20:13:05.257Z,61.40
2023-04-24T20:15:07.397Z,61.30
2023-04-24T20:17:09.114Z,61.50
2023-04-24T20:19:10.842Z,61.60
2023-04-24T20:21:13.222Z,61.70
2023-04-24T20:23:15.214Z,61.40
2023-04-24T20:25:17.020Z,61.30
2023-04-24T20:27:18.707Z,61.30
2023-04-24T20:29:20.338Z,61.40
2023-04-24T20:31:22.166Z,61.40
2023-04-24T20:33:24.040Z,61.20
2023-04-24T20:35:25.795Z,61.10
2023-04-24T20:37:29.185Z,61.10
2023-04-24T20:39:31.244Z,61.20
2023-04-24T20:41:34.032Z,61.30
2023-04-24T20:43:36.650Z,61.20
2023-04-24T20:45:38.421Z,61.40
2023-04-24T20:47:40.374Z,61.30
2023-04-24T20:49:42.612Z,61.40
2023-04-24T20:51:45.196Z,61.40
2023-04-24T20:53:49.273Z,61.50
2023-04-24T20:55:51.058Z,61.70
2023-04-24T20:57:52.852Z,61.60
2023-04-24T20:59:54.864Z,61.60
2023-04-24T21:01:58.577Z,61.80
2023-04-24T21:04:00.567Z,61.50
2023-04-24T21:06:02.431Z,61.50
2023-04-24T21:08:04.279Z,61.40
2023-04-24T21:10:06.286Z,61.50
2023-04-24T21:12:08.066Z,61.40
2023-04-24T21:14:10.491Z,61.30
2023-04-24T21:16:12.245Z,61.20
2023-04-24T21:18:14.138Z,61.40
2023-04-24T21:20:15.998Z,61.20
2023-04-24T21:22:17.771Z,61.20
2023-04-24T21:24:19.438Z,61.40
2023-04-24T21:26:21.383Z,61.40
2023-04-24T21:28:25.226Z,61.50
2023-04-24T21:30:27.008Z,61.60
2023-04-24T21:32:28.723Z,61.60
2023-04-24T21:34:30.502Z,61.70
2023-04-24T21:36:32.795Z,61.70
2023-04-24T21:38:34.715Z,61.80
2023-04-24T21:40:36.484Z,62.10
2023-04-24T21:42:38.775Z,62.10
2023-04-24T21:44:40.615Z,62.20
2023-04-24T21:46:42.784Z,62.10
2023-04-24T21:48:44.583Z,62.20
2023-04-24T21:50:46.250Z,62.70
2023-04-24T21:52:47.938Z,62.50
2023-04-24T21:54:49.862Z,62.70
2023-04-24T21:56:51.708Z,62.90
2023-04-24T21:58:53.539Z,63.10
2023-04-24T22:00:55.322Z,63.20
2023-04-24T22:02:57.114Z,62.90
2023-04-24T22:05:04.529Z,63.00
2023-04-24T22:10:18.891Z,62.90
2023-04-24T22:55:44.349Z,63.40
2023-04-24T23:21:06.587Z,63.80
